sensor_id;sensor_type;location;lat;lon;timestamp;temperature;humidity
40253;DHT22;25972;51.854;4.534;2022-12-07T00:00:55;4.60;99.90
40253;DHT22;25972;51.854;4.534;2022-12-07T00:03:29;4.30;99.90
40253;DHT22;25972;51.854;4.534;2022-12-07T00:05:58;4.30;99.90
40253;DHT22;25972;51.854;4.534;2022-12-07T00:08:24;4.40;99.90
40253;DHT22;25972;51.854;4.534;2022-12-07T00:10:49;4.40;99.90
40253;DHT22;25972;51.854;4.534;2022-12-07T00:13:15;4.30;99.90
40253;DHT22;25972;51.854;4.534;2022-12-07T00:15:41;4.30;99.90
40253;DHT22;25972;51.854;4.534;2022-12-07T00:18:07;4.30;99.90
40253;DHT22;25972;51.854;4.534;2022-12-07T00:20:33;4.30;99.90
40253;DHT22;25972;51.854;4.534;2022-12-07T00:22:59;4.60;99.90
40253;DHT22;25972;51.854;4.534;2022-12-07T00:25:25;4.30;99.90
40253;DHT22;25972;51.854;4.534;2022-12-07T00:27:52;4.60;99.90
40253;DHT22;25972;51.854;4.534;2022-12-07T00:30:19;4.20;99.90
40253;DHT22;25972;51.854;4.534;2022-12-07T00:32:44;4.40;99.90
40253;DHT22;25972;51.854;4.534;2022-12-07T00:35:10;4.30;99.90
40253;DHT22;25972;51.854;4.534;2022-12-07T00:37:36;4.30;99.90
40253;DHT22;25972;51.854;4.534;2022-12-07T00:40:02;4.50;99.90
40253;DHT22;25972;51.854;4.534;2022-12-07T00:42:28;4.50;99.90
40253;DHT22;25972;51.854;4.534;2022-12-07T00:44:54;4.10;99.90
40253;DHT22;25972;51.854;4.534;2022-12-07T00:47:20;4.40;99.90
40253;DHT22;25972;51.854;4.534;2022-12-07T00:49:45;4.00;99.90
40253;DHT22;25972;51.854;4.534;2022-12-07T00:52:11;4.00;99.90
40253;DHT22;25972;51.854;4.534;2022-12-07T00:54:37;4.10;99.90
40253;DHT22;25972;51.854;4.534;2022-12-07T00:57:03;3.90;99.90
40253;DHT22;25972;51.854;4.534;2022-12-07T00:59:29;4.10;99.90
40253;DHT22;25972;51.854;4.534;2022-12-07T01:01:54;3.90;99.90
40253;DHT22;25972;51.854;4.534;2022-12-07T01:04:20;3.60;99.90
40253;DHT22;25972;51.854;4.534;2022-12-07T01:06:46;3.60;99.90
40253;DHT22;25972;51.854;4.534;2022-12-07T01:09:12;3.90;99.90
40253;DHT22;25972;51.854;4.534;2022-12-07T01:11:37;3.80;99.90
40253;DHT22;25972;51.854;4.534;2022-12-07T01:14:03;3.60;99.90
40253;DHT22;25972;51.854;4.534;2022-12-07T01:16:31;3.70;99.90
40253;DHT22;25972;51.854;4.534;2022-12-07T01:18:58;3.60;99.90
40253;DHT22;25972;51.854;4.534;2022-12-07T01:21:29;3.60;99.90
40253;DHT22;25972;51.854;4.534;2022-12-07T01:23:57;3.20;99.90
40253;DHT22;25972;51.854;4.534;2022-12-07T01:26:24;3.30;99.90
40253;DHT22;25972;51.854;4.534;2022-12-07T01:28:50;3.30;99.90
40253;DHT22;25972;51.854;4.534;2022-12-07T01:31:19;3.20;99.90
40253;DHT22;25972;51.854;4.534;2022-12-07T01:33:49;3.10;99.90
40253;DHT22;25972;51.854;4.534;2022-12-07T01:36:36;3.10;99.90
40253;DHT22;25972;51.854;4.534;2022-12-07T01:39:05;3.00;99.90
40253;DHT22;25972;51.854;4.534;2022-12-07T01:41:34;3.30;99.90
40253;DHT22;25972;51.854;4.534;2022-12-07T01:46:42;3.20;99.90
40253;DHT22;25972;51.854;4.534;2022-12-07T01:49:16;3.10;99.90
40253;DHT22;25972;51.854;4.534;2022-12-07T01:51:43;3.10;99.90
40253;DHT22;25972;51.854;4.534;2022-12-07T01:54:11;2.80;99.90
40253;DHT22;25972;51.854;4.534;2022-12-07T01:56:40;3.00;99.90
40253;DHT22;25972;51.854;4.534;2022-12-07T01:59:08;2.60;99.90
40253;DHT22;25972;51.854;4.534;2022-12-07T02:01:33;2.80;99.90
40253;DHT22;25972;51.854;4.534;2022-12-07T02:04:01;2.60;99.90
40253;DHT22;25972;51.854;4.534;2022-12-07T02:06:27;2.50;99.90
40253;DHT22;25972;51.854;4.534;2022-12-07T02:08:53;2.50;99.90
40253;DHT22;25972;51.854;4.534;2022-12-07T02:11:20;2.80;99.90
40253;DHT22;25972;51.854;4.534;2022-12-07T02:13:46;2.70;99.90
40253;DHT22;25972;51.854;4.534;2022-12-07T02:25:05;3.00;99.90
40253;DHT22;25972;51.854;4.534;2022-12-07T02:30:10;2.80;99.90
40253;DHT22;25972;51.854;4.534;2022-12-07T02:32:56;2.90;99.90
40253;DHT22;25972;51.854;4.534;2022-12-07T02:35:39;3.20;99.90
40253;DHT22;25972;51.854;4.534;2022-12-07T02:40:40;3.10;99.90
40253;DHT22;25972;51.854;4.534;2022-12-07T02:45:58;3.00;99.90
40253;DHT22;25972;51.854;4.534;2022-12-07T02:48:26;2.60;99.90
40253;DHT22;25972;51.854;4.534;2022-12-07T02:50:54;3.00;99.90
40253;DHT22;25972;51.854;4.534;2022-12-07T02:53:40;2.50;99.90
40253;DHT22;25972;51.854;4.534;2022-12-07T03:02:07;2.80;99.90
40253;DHT22;25972;51.854;4.534;2022-12-07T03:05:01;2.90;99.90
40253;DHT22;25972;51.854;4.534;2022-12-07T03:10:16;2.60;99.90
40253;DHT22;25972;51.854;4.534;2022-12-07T03:15:23;2.70;99.90
40253;DHT22;25972;51.854;4.534;2022-12-07T03:17:56;2.50;99.90
40253;DHT22;25972;51.854;4.534;2022-12-07T03:20:23;2.50;99.90
40253;DHT22;25972;51.854;4.534;2022-12-07T03:22:51;2.90;99.90
40253;DHT22;25972;51.854;4.534;2022-12-07T03:25:18;2.90;99.90
40253;DHT22;25972;51.854;4.534;2022-12-07T03:27:49;2.60;99.90
40253;DHT22;25972;51.854;4.534;2022-12-07T03:30:36;2.60;99.90
40253;DHT22;25972;51.854;4.534;2022-12-07T03:33:11;2.90;99.90
40253;DHT22;25972;51.854;4.534;2022-12-07T03:35:49;2.90;99.90
40253;DHT22;25972;51.854;4.534;2022-12-07T03:38:25;2.80;99.90
40253;DHT22;25972;51.854;4.534;2022-12-07T03:41:08;3.10;99.90
40253;DHT22;25972;51.854;4.534;2022-12-07T03:43:36;2.70;99.90
40253;DHT22;25972;51.854;4.534;2022-12-07T03:48:56;2.90;99.90
40253;DHT22;25972;51.854;4.534;2022-12-07T03:51:42;3.10;99.90
40253;DHT22;25972;51.854;4.534;2022-12-07T03:56:44;3.20;99.90
40253;DHT22;25972;51.854;4.534;2022-12-07T03:59:13;2.80;99.90
40253;DHT22;25972;51.854;4.534;2022-12-07T04:01:42;2.90;99.90
40253;DHT22;25972;51.854;4.534;2022-12-07T04:04:08;3.00;99.90
40253;DHT22;25972;51.854;4.534;2022-12-07T04:06:34;2.90;99.90
40253;DHT22;25972;51.854;4.534;2022-12-07T04:09:00;2.70;99.90
40253;DHT22;25972;51.854;4.534;2022-12-07T04:11:26;2.80;99.90
40253;DHT22;25972;51.854;4.534;2022-12-07T04:13:52;3.00;99.90
40253;DHT22;25972;51.854;4.534;2022-12-07T04:16:36;2.90;99.90
40253;DHT22;25972;51.854;4.534;2022-12-07T04:19:02;2.60;99.90
40253;DHT22;25972;51.854;4.534;2022-12-07T04:21:29;2.50;99.90
40253;DHT22;25972;51.854;4.534;2022-12-07T04:23:55;2.70;99.90
40253;DHT22;25972;51.854;4.534;2022-12-07T04:26:21;2.80;99.90
40253;DHT22;25972;51.854;4.534;2022-12-07T04:28:47;2.50;99.90
40253;DHT22;25972;51.854;4.534;2022-12-07T04:31:13;2.60;99.90
40253;DHT22;25972;51.854;4.534;2022-12-07T04:33:39;2.80;99.90
40253;DHT22;25972;51.854;4.534;2022-12-07T04:36:05;2.50;99.90
40253;DHT22;25972;51.854;4.534;2022-12-07T04:38:31;2.70;99.90
40253;DHT22;25972;51.854;4.534;2022-12-07T04:40:57;2.30;99.90
40253;DHT22;25972;51.854;4.534;2022-12-07T04:43:23;2.30;99.90
40253;DHT22;25972;51.854;4.534;2022-12-07T04:45:49;2.30;99.90
40253;DHT22;25972;51.854;4.534;2022-12-07T04:48:16;2.30;99.90
40253;DHT22;25972;51.854;4.534;2022-12-07T04:50:42;2.50;99.90
40253;DHT22;25972;51.854;4.534;2022-12-07T04:53:07;2.50;99.90
40253;DHT22;25972;51.854;4.534;2022-12-07T04:55:33;2.10;99.90
40253;DHT22;25972;51.854;4.534;2022-12-07T04:57:59;2.10;99.90
40253;DHT22;25972;51.854;4.534;2022-12-07T05:00:25;2.40;99.90
40253;DHT22;25972;51.854;4.534;2022-12-07T05:02:51;2.40;99.90
40253;DHT22;25972;51.854;4.534;2022-12-07T05:05:16;2.00;99.90
40253;DHT22;25972;51.854;4.534;2022-12-07T05:07:42;2.30;99.90
40253;DHT22;25972;51.854;4.534;2022-12-07T05:10:08;2.00;99.90
40253;DHT22;25972;51.854;4.534;2022-12-07T05:12:34;1.90;99.90
40253;DHT22;25972;51.854;4.534;2022-12-07T05:15:00;2.10;99.90
40253;DHT22;25972;51.854;4.534;2022-12-07T05:17:26;1.80;99.90
40253;DHT22;25972;51.854;4.534;2022-12-07T05:19:52;1.90;99.90
40253;DHT22;25972;51.854;4.534;2022-12-07T05:22:17;1.90;99.90
40253;DHT22;25972;51.854;4.534;2022-12-07T05:24:43;1.80;99.90
40253;DHT22;25972;51.854;4.534;2022-12-07T05:27:09;2.00;99.90
40253;DHT22;25972;51.854;4.534;2022-12-07T05:29:35;1.80;99.90
40253;DHT22;25972;51.854;4.534;2022-12-07T05:32:01;2.00;99.90
40253;DHT22;25972;51.854;4.534;2022-12-07T05:34:26;1.80;99.90
40253;DHT22;25972;51.854;4.534;2022-12-07T05:36:52;1.60;99.90
40253;DHT22;25972;51.854;4.534;2022-12-07T05:39:18;1.70;99.90
40253;DHT22;25972;51.854;4.534;2022-12-07T05:41:44;1.80;99.90
40253;DHT22;25972;51.854;4.534;2022-12-07T05:44:28;1.80;99.90
40253;DHT22;25972;51.854;4.534;2022-12-07T05:46:54;1.70;99.90
40253;DHT22;25972;51.854;4.534;2022-12-07T05:49:20;1.90;99.90
40253;DHT22;25972;51.854;4.534;2022-12-07T05:51:46;1.60;99.90
40253;DHT22;25972;51.854;4.534;2022-12-07T05:54:11;1.70;99.90
40253;DHT22;25972;51.854;4.534;2022-12-07T05:56:37;1.50;99.90
40253;DHT22;25972;51.854;4.534;2022-12-07T05:59:03;1.40;99.90
40253;DHT22;25972;51.854;4.534;2022-12-07T06:01:58;1.80;99.90
40253;DHT22;25972;51.854;4.534;2022-12-07T06:04:26;1.80;99.90
40253;DHT22;25972;51.854;4.534;2022-12-07T06:06:53;1.40;99.90
40253;DHT22;25972;51.854;4.534;2022-12-07T06:09:20;1.40;99.90
40253;DHT22;25972;51.854;4.534;2022-12-07T06:11:46;1.80;99.90
40253;DHT22;25972;51.854;4.534;2022-12-07T06:14:31;1.50;99.90
40253;DHT22;25972;51.854;4.534;2022-12-07T06:16:58;1.60;99.90
40253;DHT22;25972;51.854;4.534;2022-12-07T06:19:23;1.50;99.90
40253;DHT22;25972;51.854;4.534;2022-12-07T06:21:49;1.70;99.90
40253;DHT22;25972;51.854;4.534;2022-12-07T06:24:16;1.30;99.90
40253;DHT22;25972;51.854;4.534;2022-12-07T06:26:42;1.30;99.90
40253;DHT22;25972;51.854;4.534;2022-12-07T06:29:09;1.50;99.90
40253;DHT22;25972;51.854;4.534;2022-12-07T06:31:35;1.60;99.90
40253;DHT22;25972;51.854;4.534;2022-12-07T06:34:05;1.70;99.90
40253;DHT22;25972;51.854;4.534;2022-12-07T06:36:31;1.40;99.90
40253;DHT22;25972;51.854;4.534;2022-12-07T06:38:57;1.30;99.90
40253;DHT22;25972;51.854;4.534;2022-12-07T06:41:23;1.50;99.90
40253;DHT22;25972;51.854;4.534;2022-12-07T06:43:50;1.40;99.90
40253;DHT22;25972;51.854;4.534;2022-12-07T06:46:16;1.60;99.90
40253;DHT22;25972;51.854;4.534;2022-12-07T06:48:42;1.60;99.90
40253;DHT22;25972;51.854;4.534;2022-12-07T06:51:08;1.50;99.90
40253;DHT22;25972;51.854;4.534;2022-12-07T06:53:35;1.60;99.90
40253;DHT22;25972;51.854;4.534;2022-12-07T06:56:01;1.60;99.90
40253;DHT22;25972;51.854;4.534;2022-12-07T06:58:27;1.50;99.90
40253;DHT22;25972;51.854;4.534;2022-12-07T07:00:53;1.20;99.90
40253;DHT22;25972;51.854;4.534;2022-12-07T07:03:19;1.20;99.90
40253;DHT22;25972;51.854;4.534;2022-12-07T07:05:45;1.60;99.90
40253;DHT22;25972;51.854;4.534;2022-12-07T07:08:12;1.40;99.90
40253;DHT22;25972;51.854;4.534;2022-12-07T07:10:40;1.40;99.90
40253;DHT22;25972;51.854;4.534;2022-12-07T07:13:06;1.30;99.90
40253;DHT22;25972;51.854;4.534;2022-12-07T07:15:33;1.50;99.90
40253;DHT22;25972;51.854;4.534;2022-12-07T07:17:59;1.20;99.90
40253;DHT22;25972;51.854;4.534;2022-12-07T07:20:25;1.30;99.90
40253;DHT22;25972;51.854;4.534;2022-12-07T07:22:54;1.50;99.90
40253;DHT22;25972;51.854;4.534;2022-12-07T07:25:21;1.20;99.90
40253;DHT22;25972;51.854;4.534;2022-12-07T07:27:47;1.50;99.90
40253;DHT22;25972;51.854;4.534;2022-12-07T07:30:15;1.20;99.90
40253;DHT22;25972;51.854;4.534;2022-12-07T07:32:43;1.40;99.90
40253;DHT22;25972;51.854;4.534;2022-12-07T07:35:09;1.50;99.90
40253;DHT22;25972;51.854;4.534;2022-12-07T07:37:35;1.60;99.90
40253;DHT22;25972;51.854;4.534;2022-12-07T07:40:02;1.30;99.90
40253;DHT22;25972;51.854;4.534;2022-12-07T07:42:28;1.50;99.90
40253;DHT22;25972;51.854;4.534;2022-12-07T07:44:55;1.60;99.90
40253;DHT22;25972;51.854;4.534;2022-12-07T07:47:21;1.70;99.90
40253;DHT22;25972;51.854;4.534;2022-12-07T07:49:47;1.40;99.90
40253;DHT22;25972;51.854;4.534;2022-12-07T07:52:13;1.60;99.90
40253;DHT22;25972;51.854;4.534;2022-12-07T07:54:39;1.30;99.90
40253;DHT22;25972;51.854;4.534;2022-12-07T07:57:05;1.60;99.90
40253;DHT22;25972;51.854;4.534;2022-12-07T07:59:31;1.70;99.90
40253;DHT22;25972;51.854;4.534;2022-12-07T08:01:57;1.50;99.90
40253;DHT22;25972;51.854;4.534;2022-12-07T08:04:23;1.50;99.90
40253;DHT22;25972;51.854;4.534;2022-12-07T08:06:50;1.60;99.90
40253;DHT22;25972;51.854;4.534;2022-12-07T08:09:16;1.80;99.90
40253;DHT22;25972;51.854;4.534;2022-12-07T08:11:43;1.70;99.90
40253;DHT22;25972;51.854;4.534;2022-12-07T08:14:10;1.60;99.90
40253;DHT22;25972;51.854;4.534;2022-12-07T08:16:37;2.00;99.90
40253;DHT22;25972;51.854;4.534;2022-12-07T08:19:04;2.10;99.90
40253;DHT22;25972;51.854;4.534;2022-12-07T08:21:30;2.00;99.90
40253;DHT22;25972;51.854;4.534;2022-12-07T08:23:57;2.00;99.90
40253;DHT22;25972;51.854;4.534;2022-12-07T08:26:23;2.20;99.90
40253;DHT22;25972;51.854;4.534;2022-12-07T08:28:48;2.30;99.90
40253;DHT22;25972;51.854;4.534;2022-12-07T08:31:17;2.10;99.90
40253;DHT22;25972;51.854;4.534;2022-12-07T08:33:46;2.00;99.90
40253;DHT22;25972;51.854;4.534;2022-12-07T08:36:13;2.20;99.90
40253;DHT22;25972;51.854;4.534;2022-12-07T08:38:40;2.10;99.90
40253;DHT22;25972;51.854;4.534;2022-12-07T08:41:06;2.20;99.90
40253;DHT22;25972;51.854;4.534;2022-12-07T08:43:33;2.60;99.90
40253;DHT22;25972;51.854;4.534;2022-12-07T08:49:08;2.70;99.90
40253;DHT22;25972;51.854;4.534;2022-12-07T08:51:37;3.10;99.90
40253;DHT22;25972;51.854;4.534;2022-12-07T08:54:05;3.50;99.90
40253;DHT22;25972;51.854;4.534;2022-12-07T08:56:32;3.30;99.90
40253;DHT22;25972;51.854;4.534;2022-12-07T08:58:58;3.50;99.90
40253;DHT22;25972;51.854;4.534;2022-12-07T09:01:24;3.80;99.90
40253;DHT22;25972;51.854;4.534;2022-12-07T09:03:49;4.10;99.90
40253;DHT22;25972;51.854;4.534;2022-12-07T09:06:15;4.40;99.90
40253;DHT22;25972;51.854;4.534;2022-12-07T09:08:46;4.30;99.90
40253;DHT22;25972;51.854;4.534;2022-12-07T09:11:12;4.30;99.90
40253;DHT22;25972;51.854;4.534;2022-12-07T09:13:38;4.50;99.90
40253;DHT22;25972;51.854;4.534;2022-12-07T09:16:04;4.40;99.90
40253;DHT22;25972;51.854;4.534;2022-12-07T09:18:30;4.60;99.90
40253;DHT22;25972;51.854;4.534;2022-12-07T09:20:56;4.80;99.90
40253;DHT22;25972;51.854;4.534;2022-12-07T09:23:23;4.80;99.90
40253;DHT22;25972;51.854;4.534;2022-12-07T09:25:49;4.60;99.90
40253;DHT22;25972;51.854;4.534;2022-12-07T09:28:15;5.10;99.90
40253;DHT22;25972;51.854;4.534;2022-12-07T09:30:48;5.10;99.90
40253;DHT22;25972;51.854;4.534;2022-12-07T09:33:14;5.20;99.90
40253;DHT22;25972;51.854;4.534;2022-12-07T09:35:50;5.30;99.90
40253;DHT22;25972;51.854;4.534;2022-12-07T09:38:18;5.20;99.90
40253;DHT22;25972;51.854;4.534;2022-12-07T09:40:44;5.20;99.90
40253;DHT22;25972;51.854;4.534;2022-12-07T09:43:20;5.40;99.90
40253;DHT22;25972;51.854;4.534;2022-12-07T09:45:49;5.50;99.90
40253;DHT22;25972;51.854;4.534;2022-12-07T09:48:18;5.40;99.90
40253;DHT22;25972;51.854;4.534;2022-12-07T09:50:47;5.40;99.90
40253;DHT22;25972;51.854;4.534;2022-12-07T09:53:34;5.60;99.90
40253;DHT22;25972;51.854;4.534;2022-12-07T09:56:01;5.70;99.90
40253;DHT22;25972;51.854;4.534;2022-12-07T09:58:29;5.60;99.90
40253;DHT22;25972;51.854;4.534;2022-12-07T10:01:21;5.60;99.90
40253;DHT22;25972;51.854;4.534;2022-12-07T10:06:16;5.20;99.90
40253;DHT22;25972;51.854;4.534;2022-12-07T10:08:42;5.40;99.90
40253;DHT22;25972;51.854;4.534;2022-12-07T10:11:09;5.40;99.90
40253;DHT22;25972;51.854;4.534;2022-12-07T10:13:41;5.60;99.90
40253;DHT22;25972;51.854;4.534;2022-12-07T10:19:18;5.50;99.90
40253;DHT22;25972;51.854;4.534;2022-12-07T10:22:00;5.80;99.90
40253;DHT22;25972;51.854;4.534;2022-12-07T10:24:26;6.30;99.90
40253;DHT22;25972;51.854;4.534;2022-12-07T10:26:52;6.70;99.90
40253;DHT22;25972;51.854;4.534;2022-12-07T10:29:47;7.10;99.90
40253;DHT22;25972;51.854;4.534;2022-12-07T10:34:42;8.00;99.90
40253;DHT22;25972;51.854;4.534;2022-12-07T10:42:40;7.90;99.90
40253;DHT22;25972;51.854;4.534;2022-12-07T10:45:24;7.90;99.90
40253;DHT22;25972;51.854;4.534;2022-12-07T10:48:01;7.80;99.90
40253;DHT22;25972;51.854;4.534;2022-12-07T10:53:54;7.60;99.90
40253;DHT22;25972;51.854;4.534;2022-12-07T10:56:46;7.60;99.90
40253;DHT22;25972;51.854;4.534;2022-12-07T11:02:45;7.50;99.90
40253;DHT22;25972;51.854;4.534;2022-12-07T11:05:27;7.50;99.90
40253;DHT22;25972;51.854;4.534;2022-12-07T11:16:10;8.00;99.90
40253;DHT22;25972;51.854;4.534;2022-12-07T11:21:29;7.80;99.90
40253;DHT22;25972;51.854;4.534;2022-12-07T11:24:17;7.80;99.90
40253;DHT22;25972;51.854;4.534;2022-12-07T11:31:56;7.90;99.90
40253;DHT22;25972;51.854;4.534;2022-12-07T11:37:20;7.90;99.90
40253;DHT22;25972;51.854;4.534;2022-12-07T11:39:50;7.80;99.90
40253;DHT22;25972;51.854;4.534;2022-12-07T11:42:37;7.70;99.90
40253;DHT22;25972;51.854;4.534;2022-12-07T11:45:43;7.70;99.90
40253;DHT22;25972;51.854;4.534;2022-12-07T11:48:20;7.70;99.90
40253;DHT22;25972;51.854;4.534;2022-12-07T11:50:51;7.80;99.90
40253;DHT22;25972;51.854;4.534;2022-12-07T11:53:46;7.90;99.90
40253;DHT22;25972;51.854;4.534;2022-12-07T11:56:15;7.90;99.90
40253;DHT22;25972;51.854;4.534;2022-12-07T12:06:39;7.90;99.90
40253;DHT22;25972;51.854;4.534;2022-12-07T12:09:31;7.70;99.90
40253;DHT22;25972;51.854;4.534;2022-12-07T12:12:20;7.30;99.90
40253;DHT22;25972;51.854;4.534;2022-12-07T12:15:02;6.90;99.90
40253;DHT22;25972;51.854;4.534;2022-12-07T12:22:45;6.60;99.90
40253;DHT22;25972;51.854;4.534;2022-12-07T12:25:53;6.50;99.90
40253;DHT22;25972;51.854;4.534;2022-12-07T12:28:28;6.50;99.90
40253;DHT22;25972;51.854;4.534;2022-12-07T12:33:51;6.60;99.90
40253;DHT22;25972;51.854;4.534;2022-12-07T12:54:24;6.70;99.90
40253;DHT22;25972;51.854;4.534;2022-12-07T12:57:26;6.70;99.90
40253;DHT22;25972;51.854;4.534;2022-12-07T13:05:16;6.80;99.90
40253;DHT22;25972;51.854;4.534;2022-12-07T13:26:35;6.40;99.90
40253;DHT22;25972;51.854;4.534;2022-12-07T13:29:20;6.40;99.90
40253;DHT22;25972;51.854;4.534;2022-12-07T13:31:52;6.50;99.90
40253;DHT22;25972;51.854;4.534;2022-12-07T13:34:40;6.40;99.90
40253;DHT22;25972;51.854;4.534;2022-12-07T13:37:27;6.40;99.90
40253;DHT22;25972;51.854;4.534;2022-12-07T13:39:59;6.50;99.90
40253;DHT22;25972;51.854;4.534;2022-12-07T13:42:32;6.50;99.90
40253;DHT22;25972;51.854;4.534;2022-12-07T13:45:00;6.50;99.90
40253;DHT22;25972;51.854;4.534;2022-12-07T13:47:35;6.40;99.90
40253;DHT22;25972;51.854;4.534;2022-12-07T13:50:15;6.30;99.90
40253;DHT22;25972;51.854;4.534;2022-12-07T13:52:46;6.20;99.90
40253;DHT22;25972;51.854;4.534;2022-12-07T13:55:15;6.10;99.90
40253;DHT22;25972;51.854;4.534;2022-12-07T13:57:41;6.20;99.90
40253;DHT22;25972;51.854;4.534;2022-12-07T14:00:20;6.20;99.90
40253;DHT22;25972;51.854;4.534;2022-12-07T14:05:37;6.00;99.90
40253;DHT22;25972;51.854;4.534;2022-12-07T14:08:05;6.10;99.90
40253;DHT22;25972;51.854;4.534;2022-12-07T14:13:17;6.00;99.90
40253;DHT22;25972;51.854;4.534;2022-12-07T14:15:50;6.10;99.90
40253;DHT22;25972;51.854;4.534;2022-12-07T14:18:29;6.20;99.90
40253;DHT22;25972;51.854;4.534;2022-12-07T14:21:17;6.10;99.90
40253;DHT22;25972;51.854;4.534;2022-12-07T14:24:08;6.20;99.90
40253;DHT22;25972;51.854;4.534;2022-12-07T14:26:33;6.20;99.90
40253;DHT22;25972;51.854;4.534;2022-12-07T14:31:51;6.30;99.90
40253;DHT22;25972;51.854;4.534;2022-12-07T14:34:19;6.20;99.90
40253;DHT22;25972;51.854;4.534;2022-12-07T14:36:44;6.20;99.90
40253;DHT22;25972;51.854;4.534;2022-12-07T14:39:10;6.30;99.90
40253;DHT22;25972;51.854;4.534;2022-12-07T14:41:36;6.20;99.90
40253;DHT22;25972;51.854;4.534;2022-12-07T14:44:18;6.20;99.90
40253;DHT22;25972;51.854;4.534;2022-12-07T14:46:45;6.10;99.90
40253;DHT22;25972;51.854;4.534;2022-12-07T14:49:11;6.10;99.90
40253;DHT22;25972;51.854;4.534;2022-12-07T14:51:39;5.90;99.90
40253;DHT22;25972;51.854;4.534;2022-12-07T14:54:27;5.90;99.90
40253;DHT22;25972;51.854;4.534;2022-12-07T14:56:52;6.00;99.90
40253;DHT22;25972;51.854;4.534;2022-12-07T14:59:18;6.10;99.90
40253;DHT22;25972;51.854;4.534;2022-12-07T15:01:44;5.90;99.90
40253;DHT22;25972;51.854;4.534;2022-12-07T15:04:10;5.90;99.90
40253;DHT22;25972;51.854;4.534;2022-12-07T15:06:36;5.80;99.90
40253;DHT22;25972;51.854;4.534;2022-12-07T15:09:02;5.80;99.90
40253;DHT22;25972;51.854;4.534;2022-12-07T15:11:28;5.90;99.90
40253;DHT22;25972;51.854;4.534;2022-12-07T15:13:54;5.80;99.90
40253;DHT22;25972;51.854;4.534;2022-12-07T15:16:38;5.80;99.90
40253;DHT22;25972;51.854;4.534;2022-12-07T15:19:08;5.70;99.90
40253;DHT22;25972;51.854;4.534;2022-12-07T15:21:35;5.70;99.90
40253;DHT22;25972;51.854;4.534;2022-12-07T15:24:00;5.70;99.90
40253;DHT22;25972;51.854;4.534;2022-12-07T15:26:26;5.70;99.90
40253;DHT22;25972;51.854;4.534;2022-12-07T15:28:53;5.60;99.90
40253;DHT22;25972;51.854;4.534;2022-12-07T15:31:19;5.50;99.90
40253;DHT22;25972;51.854;4.534;2022-12-07T15:33:46;5.40;99.90
40253;DHT22;25972;51.854;4.534;2022-12-07T15:36:21;5.60;99.90
40253;DHT22;25972;51.854;4.534;2022-12-07T15:38:47;5.50;99.90
40253;DHT22;25972;51.854;4.534;2022-12-07T15:41:13;5.40;99.90
40253;DHT22;25972;51.854;4.534;2022-12-07T15:43:39;5.50;99.90
40253;DHT22;25972;51.854;4.534;2022-12-07T15:46:23;5.40;99.90
40253;DHT22;25972;51.854;4.534;2022-12-07T15:48:54;5.50;99.90
40253;DHT22;25972;51.854;4.534;2022-12-07T15:51:19;5.20;99.90
40253;DHT22;25972;51.854;4.534;2022-12-07T15:53:45;5.40;99.90
40253;DHT22;25972;51.854;4.534;2022-12-07T15:56:12;5.10;99.90
40253;DHT22;25972;51.854;4.534;2022-12-07T15:58:37;5.10;99.90
40253;DHT22;25972;51.854;4.534;2022-12-07T16:01:11;5.30;99.90
40253;DHT22;25972;51.854;4.534;2022-12-07T16:03:37;5.10;99.90
40253;DHT22;25972;51.854;4.534;2022-12-07T16:06:02;5.10;99.90
40253;DHT22;25972;51.854;4.534;2022-12-07T16:08:28;5.30;99.90
40253;DHT22;25972;51.854;4.534;2022-12-07T16:10:54;5.10;99.90
40253;DHT22;25972;51.854;4.534;2022-12-07T16:13:20;5.20;99.90
40253;DHT22;25972;51.854;4.534;2022-12-07T16:15:46;5.00;99.90
40253;DHT22;25972;51.854;4.534;2022-12-07T16:18:12;5.00;99.90
40253;DHT22;25972;51.854;4.534;2022-12-07T16:20:38;5.00;99.90
40253;DHT22;25972;51.854;4.534;2022-12-07T16:23:04;5.20;99.90
40253;DHT22;25972;51.854;4.534;2022-12-07T16:25:29;5.20;99.90
40253;DHT22;25972;51.854;4.534;2022-12-07T16:27:55;5.10;99.90
40253;DHT22;25972;51.854;4.534;2022-12-07T16:30:21;5.00;99.90
40253;DHT22;25972;51.854;4.534;2022-12-07T16:32:47;5.00;99.90
40253;DHT22;25972;51.854;4.534;2022-12-07T16:35:13;5.20;99.90
40253;DHT22;25972;51.854;4.534;2022-12-07T16:37:39;5.30;99.90
40253;DHT22;25972;51.854;4.534;2022-12-07T16:40:07;5.10;99.90
40253;DHT22;25972;51.854;4.534;2022-12-07T16:42:34;5.30;99.90
40253;DHT22;25972;51.854;4.534;2022-12-07T16:45:00;5.20;99.90
40253;DHT22;25972;51.854;4.534;2022-12-07T16:47:26;5.30;99.90
40253;DHT22;25972;51.854;4.534;2022-12-07T16:49:52;5.20;99.90
40253;DHT22;25972;51.854;4.534;2022-12-07T16:52:18;5.20;99.90
40253;DHT22;25972;51.854;4.534;2022-12-07T16:54:44;5.40;99.90
40253;DHT22;25972;51.854;4.534;2022-12-07T16:57:10;5.20;99.90
40253;DHT22;25972;51.854;4.534;2022-12-07T16:59:36;5.20;99.90
40253;DHT22;25972;51.854;4.534;2022-12-07T17:02:02;5.20;99.90
40253;DHT22;25972;51.854;4.534;2022-12-07T17:04:29;5.20;99.90
40253;DHT22;25972;51.854;4.534;2022-12-07T17:06:54;5.30;99.90
40253;DHT22;25972;51.854;4.534;2022-12-07T17:09:20;5.40;99.90
40253;DHT22;25972;51.854;4.534;2022-12-07T17:11:46;5.40;99.90
40253;DHT22;25972;51.854;4.534;2022-12-07T17:14:12;5.10;99.90
40253;DHT22;25972;51.854;4.534;2022-12-07T17:16:56;5.30;99.90
40253;DHT22;25972;51.854;4.534;2022-12-07T17:19:22;5.20;99.90
40253;DHT22;25972;51.854;4.534;2022-12-07T17:21:48;5.20;99.90
40253;DHT22;25972;51.854;4.534;2022-12-07T17:24:16;5.20;99.90
40253;DHT22;25972;51.854;4.534;2022-12-07T17:26:43;5.30;99.90
40253;DHT22;25972;51.854;4.534;2022-12-07T17:29:12;5.20;99.90
40253;DHT22;25972;51.854;4.534;2022-12-07T17:31:38;5.20;99.90
40253;DHT22;25972;51.854;4.534;2022-12-07T17:34:07;5.00;99.90
40253;DHT22;25972;51.854;4.534;2022-12-07T17:36:34;5.00;99.90
40253;DHT22;25972;51.854;4.534;2022-12-07T17:39:00;5.20;99.90
40253;DHT22;25972;51.854;4.534;2022-12-07T17:41:28;5.30;99.90
40253;DHT22;25972;51.854;4.534;2022-12-07T17:44:17;5.00;99.90
40253;DHT22;25972;51.854;4.534;2022-12-07T17:46:45;4.90;99.90
40253;DHT22;25972;51.854;4.534;2022-12-07T17:49:11;5.00;99.90
40253;DHT22;25972;51.854;4.534;2022-12-07T17:51:37;5.00;99.90
40253;DHT22;25972;51.854;4.534;2022-12-07T17:54:26;5.10;99.90
40253;DHT22;25972;51.854;4.534;2022-12-07T17:56:51;5.20;99.90
40253;DHT22;25972;51.854;4.534;2022-12-07T17:59:17;4.90;99.90
40253;DHT22;25972;51.854;4.534;2022-12-07T18:01:43;5.00;99.90
40253;DHT22;25972;51.854;4.534;2022-12-07T18:04:10;4.90;99.90
40253;DHT22;25972;51.854;4.534;2022-12-07T18:06:36;5.10;99.90
40253;DHT22;25972;51.854;4.534;2022-12-07T18:09:02;4.90;99.90
40253;DHT22;25972;51.854;4.534;2022-12-07T18:11:28;4.90;99.90
40253;DHT22;25972;51.854;4.534;2022-12-07T18:13:54;5.20;99.90
40253;DHT22;25972;51.854;4.534;2022-12-07T18:16:23;5.10;99.90
40253;DHT22;25972;51.854;4.534;2022-12-07T18:18:49;4.80;99.90
40253;DHT22;25972;51.854;4.534;2022-12-07T18:21:23;5.00;99.90
40253;DHT22;25972;51.854;4.534;2022-12-07T18:23:51;4.80;99.90